sensor_id;sensor_type;location;lat;lon;timestamp;pressure;altitude;pressure_sealevel;temperature;humidity
12349;BME280;5974;42.710;27.258;2024-03-08T00:02:35;100406.28;;;7.00;100.00
12349;BME280;5974;42.710;27.258;2024-03-08T00:05:01;100401.47;;;6.82;100.00
12349;BME280;5974;42.710;27.258;2024-03-08T00:07:28;100411.34;;;6.65;100.00
12349;BME280;5974;42.710;27.258;2024-03-08T00:09:55;100408.72;;;6.65;100.00
12349;BME280;5974;42.710;27.258;2024-03-08T00:12:22;100410.03;;;6.44;100.00
12349;BME280;5974;42.710;27.258;2024-03-08T00:14:49;100403.47;;;6.68;100.00
12349;BME280;5974;42.710;27.258;2024-03-08T00:17:17;100402.03;;;6.54;100.00
12349;BME280;5974;42.710;27.258;2024-03-08T00:19:43;100400.19;;;6.60;100.00
12349;BME280;5974;42.710;27.258;2024-03-08T00:22:10;100393.00;;;6.72;100.00
12349;BME280;5974;42.710;27.258;2024-03-08T00:24:37;100395.66;;;6.69;100.00
12349;BME280;5974;42.710;27.258;2024-03-08T00:27:04;100400.38;;;6.50;100.00
12349;BME280;5974;42.710;27.258;2024-03-08T00:29:31;100393.41;;;6.52;100.00
12349;BME280;5974;42.710;27.258;2024-03-08T00:31:58;100399.19;;;6.67;100.00
12349;BME280;5974;42.710;27.258;2024-03-08T00:34:26;100400.47;;;6.46;100.00
12349;BME280;5974;42.710;27.258;2024-03-08T00:36:53;100404.59;;;6.56;100.00
12349;BME280;5974;42.710;27.258;2024-03-08T00:39:20;100395.59;;;6.72;100.00
12349;BME280;5974;42.710;27.258;2024-03-08T00:41:47;100392.75;;;6.84;100.00
12349;BME280;5974;42.710;27.258;2024-03-08T00:44:14;100392.66;;;6.89;100.00
12349;BME280;5974;42.710;27.258;2024-03-08T00:46:40;100378.97;;;6.81;100.00
12349;BME280;5974;42.710;27.258;2024-03-08T00:49:08;100382.41;;;6.83;100.00
12349;BME280;5974;42.710;27.258;2024-03-08T00:51:36;100379.41;;;6.61;100.00
12349;BME280;5974;42.710;27.258;2024-03-08T00:54:03;100382.69;;;6.68;100.00
12349;BME280;5974;42.710;27.258;2024-03-08T00:56:29;100381.03;;;6.65;100.00
12349;BME280;5974;42.710;27.258;2024-03-08T00:58:56;100384.03;;;6.87;100.00
12349;BME280;5974;42.710;27.258;2024-03-08T01:01:23;100384.16;;;6.82;100.00
12349;BME280;5974;42.710;27.258;2024-03-08T01:03:50;100372.00;;;6.83;100.00
12349;BME280;5974;42.710;27.258;2024-03-08T01:06:16;100375.75;;;6.70;100.00
12349;BME280;5974;42.710;27.258;2024-03-08T01:08:45;100371.09;;;6.85;100.00
12349;BME280;5974;42.710;27.258;2024-03-08T01:11:13;100378.63;;;6.97;100.00
12349;BME280;5974;42.710;27.258;2024-03-08T01:13:40;100376.56;;;7.12;100.00
12349;BME280;5974;42.710;27.258;2024-03-08T01:16:07;100369.16;;;6.95;100.00
12349;BME280;5974;42.710;27.258;2024-03-08T01:18:34;100368.56;;;6.81;100.00
12349;BME280;5974;42.710;27.258;2024-03-08T01:21:00;100367.84;;;6.74;100.00
12349;BME280;5974;42.710;27.258;2024-03-08T01:23:27;100370.34;;;6.79;100.00
12349;BME280;5974;42.710;27.258;2024-03-08T01:25:56;100372.75;;;6.46;100.00
12349;BME280;5974;42.710;27.258;2024-03-08T01:28:23;100362.88;;;6.64;100.00
12349;BME280;5974;42.710;27.258;2024-03-08T01:30:50;100370.81;;;6.58;100.00
12349;BME280;5974;42.710;27.258;2024-03-08T01:33:21;100369.44;;;6.81;100.00
12349;BME280;5974;42.710;27.258;2024-03-08T01:35:48;100376.78;;;6.61;100.00
12349;BME280;5974;42.710;27.258;2024-03-08T01:38:15;100379.22;;;6.70;100.00
12349;BME280;5974;42.710;27.258;2024-03-08T01:40:42;100366.22;;;6.70;100.00
12349;BME280;5974;42.710;27.258;2024-03-08T01:43:20;100368.75;;;6.72;100.00
12349;BME280;5974;42.710;27.258;2024-03-08T01:45:47;100370.69;;;6.62;100.00
12349;BME280;5974;42.710;27.258;2024-03-08T01:48:14;100368.69;;;6.75;100.00
12349;BME280;5974;42.710;27.258;2024-03-08T01:50:43;100373.63;;;6.88;100.00
12349;BME280;5974;42.710;27.258;2024-03-08T01:53:10;100371.63;;;6.99;100.00
12349;BME280;5974;42.710;27.258;2024-03-08T01:55:38;100370.84;;;6.96;100.00
12349;BME280;5974;42.710;27.258;2024-03-08T01:58:05;100372.88;;;6.82;100.00
12349;BME280;5974;42.710;27.258;2024-03-08T02:00:35;100364.00;;;6.92;100.00
12349;BME280;5974;42.710;27.258;2024-03-08T02:03:03;100370.16;;;6.88;100.00
12349;BME280;5974;42.710;27.258;2024-03-08T02:05:31;100376.38;;;6.81;100.00
12349;BME280;5974;42.710;27.258;2024-03-08T02:07:58;100372.78;;;6.86;100.00
12349;BME280;5974;42.710;27.258;2024-03-08T02:10:25;100372.44;;;7.01;100.00
12349;BME280;5974;42.710;27.258;2024-03-08T02:12:51;100372.50;;;6.98;100.00
12349;BME280;5974;42.710;27.258;2024-03-08T02:15:18;100370.38;;;6.77;100.00
12349;BME280;5974;42.710;27.258;2024-03-08T02:17:48;100374.63;;;6.81;100.00
12349;BME280;5974;42.710;27.258;2024-03-08T02:20:14;100377.56;;;6.65;100.00
12349;BME280;5974;42.710;27.258;2024-03-08T02:22:43;100383.19;;;6.43;100.00
12349;BME280;5974;42.710;27.258;2024-03-08T02:25:10;100387.53;;;6.43;100.00
12349;BME280;5974;42.710;27.258;2024-03-08T02:27:37;100387.25;;;6.57;100.00
12349;BME280;5974;42.710;27.258;2024-03-08T02:30:04;100390.09;;;6.46;100.00
12349;BME280;5974;42.710;27.258;2024-03-08T02:32:31;100389.66;;;6.67;100.00
12349;BME280;5974;42.710;27.258;2024-03-08T02:34:58;100387.88;;;6.68;100.00
12349;BME280;5974;42.710;27.258;2024-03-08T02:37:25;100391.59;;;6.56;100.00
12349;BME280;5974;42.710;27.258;2024-03-08T02:39:55;100386.59;;;6.47;100.00
12349;BME280;5974;42.710;27.258;2024-03-08T02:42:22;100384.16;;;6.39;100.00
12349;BME280;5974;42.710;27.258;2024-03-08T02:44:49;100379.53;;;6.55;100.00
12349;BME280;5974;42.710;27.258;2024-03-08T02:47:16;100373.47;;;6.53;100.00
12349;BME280;5974;42.710;27.258;2024-03-08T02:49:42;100376.72;;;6.64;100.00
12349;BME280;5974;42.710;27.258;2024-03-08T02:52:09;100384.66;;;6.57;100.00
12349;BME280;5974;42.710;27.258;2024-03-08T02:54:36;100376.59;;;6.70;100.00
12349;BME280;5974;42.710;27.258;2024-03-08T02:57:04;100373.91;;;6.75;100.00
12349;BME280;5974;42.710;27.258;2024-03-08T02:59:32;100370.63;;;6.67;100.00
12349;BME280;5974;42.710;27.258;2024-03-08T03:01:59;100376.25;;;6.44;100.00
12349;BME280;5974;42.710;27.258;2024-03-08T03:04:27;100377.03;;;6.49;100.00
12349;BME280;5974;42.710;27.258;2024-03-08T03:06:54;100379.84;;;6.37;100.00
12349;BME280;5974;42.710;27.258;2024-03-08T03:09:20;100371.59;;;6.17;100.00
12349;BME280;5974;42.710;27.258;2024-03-08T03:11:53;100378.41;;;6.24;100.00
12349;BME280;5974;42.710;27.258;2024-03-08T03:14:21;100368.06;;;6.21;100.00
12349;BME280;5974;42.710;27.258;2024-03-08T03:16:47;100369.47;;;6.37;100.00
12349;BME280;5974;42.710;27.258;2024-03-08T03:19:15;100368.47;;;6.44;100.00
12349;BME280;5974;42.710;27.258;2024-03-08T03:21:42;100372.03;;;6.38;100.00
12349;BME280;5974;42.710;27.258;2024-03-08T03:24:09;100375.28;;;6.49;100.00
12349;BME280;5974;42.710;27.258;2024-03-08T03:26:36;100378.09;;;6.39;100.00
12349;BME280;5974;42.710;27.258;2024-03-08T03:29:04;100374.78;;;6.31;100.00
12349;BME280;5974;42.710;27.258;2024-03-08T03:31:34;100371.47;;;6.67;100.00
12349;BME280;5974;42.710;27.258;2024-03-08T03:34:01;100374.50;;;6.46;100.00
12349;BME280;5974;42.710;27.258;2024-03-08T03:36:29;100372.53;;;6.57;100.00
12349;BME280;5974;42.710;27.258;2024-03-08T03:38:56;100378.97;;;6.38;100.00
12349;BME280;5974;42.710;27.258;2024-03-08T03:41:31;100375.53;;;6.37;100.00
12349;BME280;5974;42.710;27.258;2024-03-08T03:43:57;100381.00;;;6.24;100.00
12349;BME280;5974;42.710;27.258;2024-03-08T03:46:24;100376.63;;;6.26;100.00
12349;BME280;5974;42.710;27.258;2024-03-08T03:48:53;100377.19;;;6.41;100.00
12349;BME280;5974;42.710;27.258;2024-03-08T03:51:20;100381.69;;;6.33;100.00
12349;BME280;5974;42.710;27.258;2024-03-08T03:53:47;100379.78;;;6.40;100.00
12349;BME280;5974;42.710;27.258;2024-03-08T03:56:14;100382.44;;;6.38;100.00
12349;BME280;5974;42.710;27.258;2024-03-08T03:58:40;100385.16;;;6.31;100.00
12349;BME280;5974;42.710;27.258;2024-03-08T04:01:07;100380.19;;;6.20;100.00
12349;BME280;5974;42.710;27.258;2024-03-08T04:03:35;100378.34;;;6.27;100.00
12349;BME280;5974;42.710;27.258;2024-03-08T04:06:04;100379.84;;;6.38;100.00
12349;BME280;5974;42.710;27.258;2024-03-08T04:08:31;100377.38;;;6.31;100.00
12349;BME280;5974;42.710;27.258;2024-03-08T04:11:00;100381.63;;;6.36;100.00
12349;BME280;5974;42.710;27.258;2024-03-08T04:13:26;100379.09;;;6.33;100.00
12349;BME280;5974;42.710;27.258;2024-03-08T04:15:53;100380.00;;;6.29;100.00
12349;BME280;5974;42.710;27.258;2024-03-08T04:18:20;100380.69;;;6.39;100.00
12349;BME280;5974;42.710;27.258;2024-03-08T04:20:47;100389.59;;;6.26;100.00
12349;BME280;5974;42.710;27.258;2024-03-08T04:23:15;100383.44;;;6.31;100.00
12349;BME280;5974;42.710;27.258;2024-03-08T04:25:43;100386.47;;;6.09;100.00
12349;BME280;5974;42.710;27.258;2024-03-08T04:28:10;100380.53;;;6.00;100.00
12349;BME280;5974;42.710;27.258;2024-03-08T04:30:37;100387.25;;;6.12;100.00
12349;BME280;5974;42.710;27.258;2024-03-08T04:33:05;100381.38;;;6.03;100.00
12349;BME280;5974;42.710;27.258;2024-03-08T04:35:34;100382.75;;;6.22;100.00
12349;BME280;5974;42.710;27.258;2024-03-08T04:38:00;100379.56;;;6.08;100.00
12349;BME280;5974;42.710;27.258;2024-03-08T04:40:32;100373.31;;;6.18;100.00
12349;BME280;5974;42.710;27.258;2024-03-08T04:42:59;100384.56;;;6.18;100.00
12349;BME280;5974;42.710;27.258;2024-03-08T04:45:26;100382.78;;;6.19;100.00
12349;BME280;5974;42.710;27.258;2024-03-08T04:47:53;100384.75;;;6.06;100.00
12349;BME280;5974;42.710;27.258;2024-03-08T04:50:20;100374.59;;;5.95;100.00
12349;BME280;5974;42.710;27.258;2024-03-08T04:52:46;100392.63;;;6.02;100.00
12349;BME280;5974;42.710;27.258;2024-03-08T04:55:14;100386.41;;;6.12;100.00
12349;BME280;5974;42.710;27.258;2024-03-08T04:57:42;100392.31;;;6.20;100.00
12349;BME280;5974;42.710;27.258;2024-03-08T05:00:10;100392.63;;;6.02;100.00
12349;BME280;5974;42.710;27.258;2024-03-08T05:02:37;100390.03;;;6.02;100.00
12349;BME280;5974;42.710;27.258;2024-03-08T05:05:05;100391.03;;;5.94;100.00
12349;BME280;5974;42.710;27.258;2024-03-08T05:07:32;100391.06;;;5.93;100.00
12349;BME280;5974;42.710;27.258;2024-03-08T05:09:59;100391.19;;;5.87;100.00
12349;BME280;5974;42.710;27.258;2024-03-08T05:12:27;100400.81;;;5.77;100.00
12349;BME280;5974;42.710;27.258;2024-03-08T05:14:55;100408.75;;;5.68;100.00
12349;BME280;5974;42.710;27.258;2024-03-08T05:17:22;100407.03;;;5.67;100.00
12349;BME280;5974;42.710;27.258;2024-03-08T05:19:49;100417.34;;;5.70;100.00
12349;BME280;5974;42.710;27.258;2024-03-08T05:22:16;100414.03;;;5.62;100.00
12349;BME280;5974;42.710;27.258;2024-03-08T05:24:44;100421.75;;;5.65;100.00
12349;BME280;5974;42.710;27.258;2024-03-08T05:27:11;100424.56;;;5.53;100.00
12349;BME280;5974;42.710;27.258;2024-03-08T05:29:38;100425.31;;;5.60;100.00
12349;BME280;5974;42.710;27.258;2024-03-08T05:32:06;100432.13;;;5.65;100.00
12349;BME280;5974;42.710;27.258;2024-03-08T05:34:33;100428.00;;;5.52;100.00
12349;BME280;5974;42.710;27.258;2024-03-08T05:37:00;100422.00;;;5.48;100.00
12349;BME280;5974;42.710;27.258;2024-03-08T05:39:27;100428.06;;;5.47;100.00
12349;BME280;5974;42.710;27.258;2024-03-08T05:41:54;100422.06;;;5.47;100.00
12349;BME280;5974;42.710;27.258;2024-03-08T05:44:22;100431.56;;;5.46;100.00
12349;BME280;5974;42.710;27.258;2024-03-08T05:46:48;100442.72;;;5.52;100.00
12349;BME280;5974;42.710;27.258;2024-03-08T05:49:17;100438.44;;;5.47;100.00
12349;BME280;5974;42.710;27.258;2024-03-08T05:51:44;100437.78;;;5.35;100.00
12349;BME280;5974;42.710;27.258;2024-03-08T05:54:13;100441.25;;;5.32;100.00
12349;BME280;5974;42.710;27.258;2024-03-08T05:56:40;100444.56;;;5.43;100.00
12349;BME280;5974;42.710;27.258;2024-03-08T05:59:07;100438.47;;;5.44;100.00
12349;BME280;5974;42.710;27.258;2024-03-08T06:01:35;100445.44;;;5.42;100.00
12349;BME280;5974;42.710;27.258;2024-03-08T06:04:03;100449.66;;;5.48;100.00
12349;BME280;5974;42.710;27.258;2024-03-08T06:06:31;100442.84;;;5.42;100.00
12349;BME280;5974;42.710;27.258;2024-03-08T06:08:58;100450.56;;;5.45;100.00
12349;BME280;5974;42.710;27.258;2024-03-08T06:11:25;100447.78;;;5.59;100.00
12349;BME280;5974;42.710;27.258;2024-03-08T06:13:53;100452.22;;;5.51;100.00
12349;BME280;5974;42.710;27.258;2024-03-08T06:16:25;100453.91;;;5.55;100.00
12349;BME280;5974;42.710;27.258;2024-03-08T06:18:55;100445.16;;;5.62;100.00
12349;BME280;5974;42.710;27.258;2024-03-08T06:21:22;100446.88;;;5.62;100.00
12349;BME280;5974;42.710;27.258;2024-03-08T06:23:53;100453.91;;;5.55;100.00
12349;BME280;5974;42.710;27.258;2024-03-08T06:26:20;100446.06;;;5.58;100.00
12349;BME280;5974;42.710;27.258;2024-03-08T06:28:48;100457.03;;;5.75;100.00
12349;BME280;5974;42.710;27.258;2024-03-08T06:31:16;100440.84;;;5.61;100.00
12349;BME280;5974;42.710;27.258;2024-03-08T06:33:43;100454.44;;;5.75;100.00
12349;BME280;5974;42.710;27.258;2024-03-08T06:36:10;100444.97;;;5.73;100.00
12349;BME280;5974;42.710;27.258;2024-03-08T06:38:37;100456.06;;;5.84;100.00
12349;BME280;5974;42.710;27.258;2024-03-08T06:41:09;100437.13;;;5.77;100.00
12349;BME280;5974;42.710;27.258;2024-03-08T06:43:41;100462.09;;;5.86;100.00
12349;BME280;5974;42.710;27.258;2024-03-08T06:46:07;100452.47;;;5.92;100.00
12349;BME280;5974;42.710;27.258;2024-03-08T06:48:34;100454.44;;;5.77;100.00
12349;BME280;5974;42.710;27.258;2024-03-08T06:51:03;100473.19;;;5.94;100.00
12349;BME280;5974;42.710;27.258;2024-03-08T06:53:30;100470.59;;;5.95;100.00
12349;BME280;5974;42.710;27.258;2024-03-08T06:55:57;100471.41;;;5.99;100.00
12349;BME280;5974;42.710;27.258;2024-03-08T06:58:25;100469.72;;;5.95;100.00
12349;BME280;5974;42.710;27.258;2024-03-08T07:00:53;100466.31;;;5.91;100.00
12349;BME280;5974;42.710;27.258;2024-03-08T07:03:23;100469.78;;;5.93;100.00
12349;BME280;5974;42.710;27.258;2024-03-08T07:05:51;100472.31;;;5.96;100.00
12349;BME280;5974;42.710;27.258;2024-03-08T07:08:18;100474.91;;;5.95;100.00
12349;BME280;5974;42.710;27.258;2024-03-08T07:10:47;100476.56;;;6.00;100.00
12349;BME280;5974;42.710;27.258;2024-03-08T07:13:14;100483.41;;;6.05;100.00
12349;BME280;5974;42.710;27.258;2024-03-08T07:15:43;100483.09;;;6.23;100.00
12349;BME280;5974;42.710;27.258;2024-03-08T07:18:10;100474.59;;;6.15;100.00
12349;BME280;5974;42.710;27.258;2024-03-08T07:20:40;100488.19;;;6.30;100.00
12349;BME280;5974;42.710;27.258;2024-03-08T07:23:07;100491.72;;;6.25;100.00
12349;BME280;5974;42.710;27.258;2024-03-08T07:25:36;100485.09;;;6.56;100.00
12349;BME280;5974;42.710;27.258;2024-03-08T07:28:04;100481.00;;;6.43;100.00
12349;BME280;5974;42.710;27.258;2024-03-08T07:30:32;100489.81;;;6.36;100.00
12349;BME280;5974;42.710;27.258;2024-03-08T07:33:17;100488.38;;;6.66;100.00
12349;BME280;5974;42.710;27.258;2024-03-08T07:35:44;100490.13;;;6.65;100.00
12349;BME280;5974;42.710;27.258;2024-03-08T07:38:12;100484.94;;;6.65;100.00
12349;BME280;5974;42.710;27.258;2024-03-08T07:40:40;100487.09;;;6.42;100.00
12349;BME280;5974;42.710;27.258;2024-03-08T07:43:10;100488.59;;;6.55;100.00
12349;BME280;5974;42.710;27.258;2024-03-08T07:45:37;100487.59;;;6.62;100.00
12349;BME280;5974;42.710;27.258;2024-03-08T07:48:04;100488.97;;;6.81;100.00
12349;BME280;5974;42.710;27.258;2024-03-08T07:50:36;100483.41;;;6.55;100.00
12349;BME280;5974;42.710;27.258;2024-03-08T07:53:03;100488.09;;;6.35;100.00
12349;BME280;5974;42.710;27.258;2024-03-08T07:55:31;100483.06;;;6.26;100.00
12349;BME280;5974;42.710;27.258;2024-03-08T07:57:58;100475.25;;;6.27;100.00
12349;BME280;5974;42.710;27.258;2024-03-08T08:00:25;100492.38;;;6.37;100.00
12349;BME280;5974;42.710;27.258;2024-03-08T08:02:52;100490.91;;;6.23;100.00
12349;BME280;5974;42.710;27.258;2024-03-08T08:05:19;100479.69;;;6.21;100.00
12349;BME280;5974;42.710;27.258;2024-03-08T08:07:47;100495.00;;;6.36;100.00
12349;BME280;5974;42.710;27.258;2024-03-08T08:10:15;100491.31;;;6.49;100.00
12349;BME280;5974;42.710;27.258;2024-03-08T08:12:44;100490.44;;;6.48;100.00
12349;BME280;5974;42.710;27.258;2024-03-08T08:15:11;100493.63;;;6.64;100.00
12349;BME280;5974;42.710;27.258;2024-03-08T08:17:38;100491.31;;;6.95;100.00
12349;BME280;5974;42.710;27.258;2024-03-08T08:20:05;100486.28;;;6.86;100.00
12349;BME280;5974;42.710;27.258;2024-03-08T08:22:33;100499.19;;;6.90;100.00
12349;BME280;5974;42.710;27.258;2024-03-08T08:25:01;100492.13;;;6.95;100.00
12349;BME280;5974;42.710;27.258;2024-03-08T08:27:28;100498.84;;;7.07;100.00
12349;BME280;5974;42.710;27.258;2024-03-08T08:29:55;100488.94;;;6.83;100.00
12349;BME280;5974;42.710;27.258;2024-03-08T08:32:22;100492.41;;;6.82;100.00
12349;BME280;5974;42.710;27.258;2024-03-08T08:34:49;100501.06;;;6.82;100.00
12349;BME280;5974;42.710;27.258;2024-03-08T08:37:15;100499.34;;;6.81;100.00
12349;BME280;5974;42.710;27.258;2024-03-08T08:39:42;100501.53;;;7.02;100.00
12349;BME280;5974;42.710;27.258;2024-03-08T08:42:10;100500.06;;;6.89;100.00
12349;BME280;5974;42.710;27.258;2024-03-08T08:44:38;100503.44;;;6.93;100.00
12349;BME280;5974;42.710;27.258;2024-03-08T08:47:05;100494.09;;;6.86;100.00
12349;BME280;5974;42.710;27.258;2024-03-08T08:49:32;100497.00;;;6.69;100.00
12349;BME280;5974;42.710;27.258;2024-03-08T08:51:58;100500.22;;;6.80;100.00
12349;BME280;5974;42.710;27.258;2024-03-08T08:54:26;100500.09;;;6.88;100.00
12349;BME280;5974;42.710;27.258;2024-03-08T08:56:53;100499.06;;;6.96;100.00
12349;BME280;5974;42.710;27.258;2024-03-08T08:59:21;100504.59;;;6.78;100.00
12349;BME280;5974;42.710;27.258;2024-03-08T09:01:50;100505.13;;;6.95;100.00
12349;BME280;5974;42.710;27.258;2024-03-08T09:04:19;100510.31;;;6.97;100.00
12349;BME280;5974;42.710;27.258;2024-03-08T09:06:47;100501.03;;;6.85;100.00
12349;BME280;5974;42.710;27.258;2024-03-08T09:09:13;100502.59;;;6.92;100.00
12349;BME280;5974;42.710;27.258;2024-03-08T09:11:42;100504.66;;;6.75;100.00
12349;BME280;5974;42.710;27.258;2024-03-08T09:14:09;100505.25;;;6.89;100.00
12349;BME280;5974;42.710;27.258;2024-03-08T09:16:38;100504.06;;;7.05;100.00
12349;BME280;5974;42.710;27.258;2024-03-08T09:19:05;100510.09;;;7.07;100.00
12349;BME280;5974;42.710;27.258;2024-03-08T09:21:32;100506.97;;;6.90;100.00
12349;BME280;5974;42.710;27.258;2024-03-08T09:24:00;100506.97;;;6.92;100.00
12349;BME280;5974;42.710;27.258;2024-03-08T09:26:26;100513.03;;;6.89;100.00
12349;BME280;5974;42.710;27.258;2024-03-08T09:28:53;100507.44;;;6.66;100.00
12349;BME280;5974;42.710;27.258;2024-03-08T09:31:21;100509.22;;;6.64;100.00
12349;BME280;5974;42.710;27.258;2024-03-08T09:33:49;100509.88;;;6.75;100.00
12349;BME280;5974;42.710;27.258;2024-03-08T09:36:16;100513.31;;;6.76;100.00
12349;BME280;5974;42.710;27.258;2024-03-08T09:38:42;100522.50;;;6.95;100.00
12349;BME280;5974;42.710;27.258;2024-03-08T09:41:09;100516.63;;;6.84;100.00
12349;BME280;5974;42.710;27.258;2024-03-08T09:43:38;100497.63;;;6.80;100.00
12349;BME280;5974;42.710;27.258;2024-03-08T09:46:06;100518.22;;;6.91;100.00
12349;BME280;5974;42.710;27.258;2024-03-08T09:48:34;100523.06;;;7.09;100.00
12349;BME280;5974;42.710;27.258;2024-03-08T09:51:03;100525.59;;;7.14;100.00
12349;BME280;5974;42.710;27.258;2024-03-08T09:53:30;100519.41;;;7.18;100.00
12349;BME280;5974;42.710;27.258;2024-03-08T09:55:56;100523.06;;;7.11;100.00
12349;BME280;5974;42.710;27.258;2024-03-08T09:58:24;100528.00;;;7.23;100.00
12349;BME280;5974;42.710;27.258;2024-03-08T10:01:07;100514.28;;;7.15;100.00
12349;BME280;5974;42.710;27.258;2024-03-08T10:03:34;100524.41;;;7.28;100.00
12349;BME280;5974;42.710;27.258;2024-03-08T10:06:03;100528.97;;;7.17;100.00
12349;BME280;5974;42.710;27.258;2024-03-08T10:08:31;100530.25;;;6.96;100.00
12349;BME280;5974;42.710;27.258;2024-03-08T10:10:58;100531.06;;;6.98;100.00
12349;BME280;5974;42.710;27.258;2024-03-08T10:13:25;100531.69;;;7.11;100.00
12349;BME280;5974;42.710;27.258;2024-03-08T10:15:53;100529.38;;;7.39;100.00
12349;BME280;5974;42.710;27.258;2024-03-08T10:18:20;100518.63;;;7.14;100.00
12349;BME280;5974;42.710;27.258;2024-03-08T10:21:03;100522.19;;;7.10;100.00
12349;BME280;5974;42.710;27.258;2024-03-08T10:23:35;100524.22;;;6.94;100.00
12349;BME280;5974;42.710;27.258;2024-03-08T10:26:10;100519.66;;;7.05;100.00
12349;BME280;5974;42.710;27.258;2024-03-08T10:28:40;100539.72;;;7.00;100.00
12349;BME280;5974;42.710;27.258;2024-03-08T10:31:07;100534.28;;;7.13;100.00
12349;BME280;5974;42.710;27.258;2024-03-08T10:33:34;100529.81;;;7.18;100.00
12349;BME280;5974;42.710;27.258;2024-03-08T10:36:01;100532.41;;;7.18;100.00
12349;BME280;5974;42.710;27.258;2024-03-08T10:38:31;100528.75;;;7.28;100.00
12349;BME280;5974;42.710;27.258;2024-03-08T10:41:00;100533.31;;;7.17;100.00
12349;BME280;5974;42.710;27.258;2024-03-08T10:43:31;100531.66;;;7.13;100.00
12349;BME280;5974;42.710;27.258;2024-03-08T10:46:12;100536.06;;;7.09;100.00
12349;BME280;5974;42.710;27.258;2024-03-08T10:48:44;100531.72;;;7.09;100.00
12349;BME280;5974;42.710;27.258;2024-03-08T10:51:11;100519.78;;;6.99;100.00
12349;BME280;5974;42.710;27.258;2024-03-08T10:53:40;100524.97;;;7.01;100.00
12349;BME280;5974;42.710;27.258;2024-03-08T10:56:08;100533.53;;;7.04;100.00
12349;BME280;5974;42.710;27.258;2024-03-08T10:58:36;100530.28;;;7.38;100.00
12349;BME280;5974;42.710;27.258;2024-03-08T11:01:03;100528.06;;;7.20;100.00
12349;BME280;5974;42.710;27.258;2024-03-08T11:03:44;100527.38;;;7.10;100.00
12349;BME280;5974;42.710;27.258;2024-03-08T11:06:16;100507.53;;;7.04;100.00
12349;BME280;5974;42.710;27.258;2024-03-08T11:08:46;100526.09;;;7.29;100.00
12349;BME280;5974;42.710;27.258;2024-03-08T11:11:26;100525.16;;;7.35;100.00
12349;BME280;5974;42.710;27.258;2024-03-08T11:14:00;100528.22;;;7.53;100.00
12349;BME280;5974;42.710;27.258;2024-03-08T11:16:38;100505.03;;;7.41;100.00
12349;BME280;5974;42.710;27.258;2024-03-08T11:19:23;100524.81;;;7.50;100.00
12349;BME280;5974;42.710;27.258;2024-03-08T11:21:57;100526.59;;;7.86;100.00
12349;BME280;5974;42.710;27.258;2024-03-08T11:24:25;100527.59;;;8.17;100.00
12349;BME280;5974;42.710;27.258;2024-03-08T11:26:57;100527.38;;;7.90;100.00
12349;BME280;5974;42.710;27.258;2024-03-08T11:29:35;100529.47;;;7.74;100.00
12349;BME280;5974;42.710;27.258;2024-03-08T11:32:07;100534.22;;;7.94;100.00
12349;BME280;5974;42.710;27.258;2024-03-08T11:34:34;100523.63;;;7.64;100.00
12349;BME280;5974;42.710;27.258;2024-03-08T11:37:03;100524.50;;;7.63;100.00
12349;BME280;5974;42.710;27.258;2024-03-08T11:39:32;100524.22;;;8.12;100.00
12349;BME280;5974;42.710;27.258;2024-03-08T11:41:59;100528.53;;;7.78;100.00
12349;BME280;5974;42.710;27.258;2024-03-08T11:44:27;100535.03;;;7.59;100.00
12349;BME280;5974;42.710;27.258;2024-03-08T11:46:54;100522.34;;;7.82;100.00
12349;BME280;5974;42.710;27.258;2024-03-08T11:49:21;100517.69;;;7.59;100.00
12349;BME280;5974;42.710;27.258;2024-03-08T11:51:51;100515.16;;;7.56;100.00
12349;BME280;5974;42.710;27.258;2024-03-08T11:54:19;100516.47;;;7.74;100.00
12349;BME280;5974;42.710;27.258;2024-03-08T11:56:47;100519.06;;;7.74;100.00
12349;BME280;5974;42.710;27.258;2024-03-08T11:59:14;100517.84;;;7.90;100.00
12349;BME280;5974;42.710;27.258;2024-03-08T12:01:43;100512.06;;;7.76;100.00
12349;BME280;5974;42.710;27.258;2024-03-08T12:04:12;100512.50;;;7.58;100.00
12349;BME280;5974;42.710;27.258;2024-03-08T12:06:40;100508.59;;;8.14;100.00
12349;BME280;5974;42.710;27.258;2024-03-08T12:09:10;100504.63;;;7.98;100.00
12349;BME280;5974;42.710;27.258;2024-03-08T12:11:38;100514.41;;;7.88;100.00
12349;BME280;5974;42.710;27.258;2024-03-08T12:14:06;100506.34;;;7.99;100.00
12349;BME280;5974;42.710;27.258;2024-03-08T12:16:33;100510.06;;;8.24;100.00
12349;BME280;5974;42.710;27.258;2024-03-08T12:19:01;100510.97;;;7.86;100.00
12349;BME280;5974;42.710;27.258;2024-03-08T12:21:31;100513.88;;;8.09;100.00
12349;BME280;5974;42.710;27.258;2024-03-08T12:24:04;100510.88;;;8.28;100.00
12349;BME280;5974;42.710;27.258;2024-03-08T12:26:34;100515.84;;;8.00;100.00
12349;BME280;5974;42.710;27.258;2024-03-08T12:29:16;100509.47;;;7.76;100.00
12349;BME280;5974;42.710;27.258;2024-03-08T12:31:46;100522.31;;;7.84;100.00
12349;BME280;5974;42.710;27.258;2024-03-08T12:34:13;100516.41;;;7.77;100.00
12349;BME280;5974;42.710;27.258;2024-03-08T12:36:45;100514.53;;;7.82;100.00
12349;BME280;5974;42.710;27.258;2024-03-08T12:39:14;100510.91;;;7.89;100.00
12349;BME280;5974;42.710;27.258;2024-03-08T12:41:42;100516.19;;;7.86;100.00
12349;BME280;5974;42.710;27.258;2024-03-08T12:44:09;100507.13;;;7.66;100.00
12349;BME280;5974;42.710;27.258;2024-03-08T12:46:38;100504.16;;;8.17;100.00
12349;BME280;5974;42.710;27.258;2024-03-08T12:49:08;100505.56;;;7.95;100.00
12349;BME280;5974;42.710;27.258;2024-03-08T12:51:37;100513.88;;;7.74;100.00
12349;BME280;5974;42.710;27.258;2024-03-08T12:54:04;100514.03;;;7.67;100.00
12349;BME280;5974;42.710;27.258;2024-03-08T12:56:33;100510.78;;;7.57;100.00